sensor_id;sensor_type;location;lat;lon;timestamp;temperature;humidity
19330;DHT22;9799;48.214;16.388;2022-11-20T00:00:40;3.20;99.90
19330;DHT22;9799;48.214;16.388;2022-11-20T00:04:02;3.00;99.90
19330;DHT22;9799;48.214;16.388;2022-11-20T00:07:23;2.90;99.90
19330;DHT22;9799;48.214;16.388;2022-11-20T00:10:46;2.90;99.90
19330;DHT22;9799;48.214;16.388;2022-11-20T00:14:09;2.90;99.90
19330;DHT22;9799;48.214;16.388;2022-11-20T00:17:31;3.00;99.90
19330;DHT22;9799;48.214;16.388;2022-11-20T00:20:52;3.00;99.90
19330;DHT22;9799;48.214;16.388;2022-11-20T00:24:13;2.90;99.90
19330;DHT22;9799;48.214;16.388;2022-11-20T00:27:36;3.10;99.90
19330;DHT22;9799;48.214;16.388;2022-11-20T00:31:01;3.10;99.90
19330;DHT22;9799;48.214;16.388;2022-11-20T00:34:23;3.00;99.90
19330;DHT22;9799;48.214;16.388;2022-11-20T00:37:44;2.90;99.90
19330;DHT22;9799;48.214;16.388;2022-11-20T00:41:08;2.90;99.90
19330;DHT22;9799;48.214;16.388;2022-11-20T00:44:30;3.10;99.90
19330;DHT22;9799;48.214;16.388;2022-11-20T00:47:52;3.30;99.90
19330;DHT22;9799;48.214;16.388;2022-11-20T00:51:14;3.20;99.90
19330;DHT22;9799;48.214;16.388;2022-11-20T00:54:36;3.30;99.90
19330;DHT22;9799;48.214;16.388;2022-11-20T00:57:57;3.50;99.90
19330;DHT22;9799;48.214;16.388;2022-11-20T01:01:22;3.60;99.90
19330;DHT22;9799;48.214;16.388;2022-11-20T01:04:44;3.40;99.90
19330;DHT22;9799;48.214;16.388;2022-11-20T01:08:06;3.50;99.90
19330;DHT22;9799;48.214;16.388;2022-11-20T01:11:29;3.30;99.90
19330;DHT22;9799;48.214;16.388;2022-11-20T01:14:50;3.30;99.90
19330;DHT22;9799;48.214;16.388;2022-11-20T01:18:13;3.10;99.90
19330;DHT22;9799;48.214;16.388;2022-11-20T01:21:37;3.00;99.90
19330;DHT22;9799;48.214;16.388;2022-11-20T01:24:59;3.00;99.90
19330;DHT22;9799;48.214;16.388;2022-11-20T01:28:20;2.90;99.90
19330;DHT22;9799;48.214;16.388;2022-11-20T01:31:42;2.80;99.90
19330;DHT22;9799;48.214;16.388;2022-11-20T01:35:06;2.90;99.90
19330;DHT22;9799;48.214;16.388;2022-11-20T01:38:29;3.00;99.90
19330;DHT22;9799;48.214;16.388;2022-11-20T01:41:52;2.90;99.90
19330;DHT22;9799;48.214;16.388;2022-11-20T01:45:59;3.00;99.90
19330;DHT22;9799;48.214;16.388;2022-11-20T01:49:27;2.90;99.90
19330;DHT22;9799;48.214;16.388;2022-11-20T01:52:55;3.00;99.90
19330;DHT22;9799;48.214;16.388;2022-11-20T01:56:17;3.00;99.90
19330;DHT22;9799;48.214;16.388;2022-11-20T01:59:40;2.80;99.90
19330;DHT22;9799;48.214;16.388;2022-11-20T02:03:05;2.80;99.90
19330;DHT22;9799;48.214;16.388;2022-11-20T02:06:28;2.70;99.90
19330;DHT22;9799;48.214;16.388;2022-11-20T02:09:53;2.70;99.90
19330;DHT22;9799;48.214;16.388;2022-11-20T02:13:14;2.70;99.90
19330;DHT22;9799;48.214;16.388;2022-11-20T02:16:54;2.70;99.90
19330;DHT22;9799;48.214;16.388;2022-11-20T02:20:16;2.70;99.90
19330;DHT22;9799;48.214;16.388;2022-11-20T02:23:39;2.80;99.90
19330;DHT22;9799;48.214;16.388;2022-11-20T02:27:09;2.60;99.90
19330;DHT22;9799;48.214;16.388;2022-11-20T02:30:31;2.60;99.90
19330;DHT22;9799;48.214;16.388;2022-11-20T02:33:55;2.70;99.90
19330;DHT22;9799;48.214;16.388;2022-11-20T02:37:17;2.80;99.90
19330;DHT22;9799;48.214;16.388;2022-11-20T02:40:38;2.80;99.90
19330;DHT22;9799;48.214;16.388;2022-11-20T02:44:02;2.80;99.90
19330;DHT22;9799;48.214;16.388;2022-11-20T02:47:23;2.80;99.90
19330;DHT22;9799;48.214;16.388;2022-11-20T02:50:45;2.80;99.90
19330;DHT22;9799;48.214;16.388;2022-11-20T02:54:06;2.80;99.90
19330;DHT22;9799;48.214;16.388;2022-11-20T02:57:27;2.70;99.90
19330;DHT22;9799;48.214;16.388;2022-11-20T03:00:50;2.80;99.90
19330;DHT22;9799;48.214;16.388;2022-11-20T03:04:11;2.90;99.90
19330;DHT22;9799;48.214;16.388;2022-11-20T03:07:32;2.90;99.90
19330;DHT22;9799;48.214;16.388;2022-11-20T03:10:54;2.90;99.90
19330;DHT22;9799;48.214;16.388;2022-11-20T03:14:15;3.00;99.90
19330;DHT22;9799;48.214;16.388;2022-11-20T03:17:39;2.80;99.90
19330;DHT22;9799;48.214;16.388;2022-11-20T03:21:00;2.70;99.90
19330;DHT22;9799;48.214;16.388;2022-11-20T03:24:22;2.80;99.90
19330;DHT22;9799;48.214;16.388;2022-11-20T03:27:43;2.70;99.90
19330;DHT22;9799;48.214;16.388;2022-11-20T03:31:07;2.70;99.90
19330;DHT22;9799;48.214;16.388;2022-11-20T03:34:30;2.80;99.90
19330;DHT22;9799;48.214;16.388;2022-11-20T03:37:52;2.80;99.90
19330;DHT22;9799;48.214;16.388;2022-11-20T03:41:15;2.80;99.90
19330;DHT22;9799;48.214;16.388;2022-11-20T03:44:37;2.80;99.90
19330;DHT22;9799;48.214;16.388;2022-11-20T03:47:58;2.90;99.90
19330;DHT22;9799;48.214;16.388;2022-11-20T03:51:22;2.90;99.90
19330;DHT22;9799;48.214;16.388;2022-11-20T03:54:45;2.90;99.90
19330;DHT22;9799;48.214;16.388;2022-11-20T03:58:06;2.80;99.90
19330;DHT22;9799;48.214;16.388;2022-11-20T04:01:30;2.80;99.90
19330;DHT22;9799;48.214;16.388;2022-11-20T04:04:51;2.90;99.90
19330;DHT22;9799;48.214;16.388;2022-11-20T04:08:14;2.90;99.90
19330;DHT22;9799;48.214;16.388;2022-11-20T04:11:36;3.00;99.90
19330;DHT22;9799;48.214;16.388;2022-11-20T04:14:58;2.80;99.90
19330;DHT22;9799;48.214;16.388;2022-11-20T04:18:19;2.80;99.90
19330;DHT22;9799;48.214;16.388;2022-11-20T04:21:40;2.90;99.90
19330;DHT22;9799;48.214;16.388;2022-11-20T04:25:03;2.90;99.90
19330;DHT22;9799;48.214;16.388;2022-11-20T04:28:25;2.80;99.90
19330;DHT22;9799;48.214;16.388;2022-11-20T04:31:46;2.90;99.90
19330;DHT22;9799;48.214;16.388;2022-11-20T04:35:08;2.90;99.90
19330;DHT22;9799;48.214;16.388;2022-11-20T04:38:29;2.90;99.90
19330;DHT22;9799;48.214;16.388;2022-11-20T04:41:51;2.70;99.90
19330;DHT22;9799;48.214;16.388;2022-11-20T04:45:33;2.80;99.90
19330;DHT22;9799;48.214;16.388;2022-11-20T04:48:54;3.00;99.90
19330;DHT22;9799;48.214;16.388;2022-11-20T04:52:15;3.20;99.90
19330;DHT22;9799;48.214;16.388;2022-11-20T04:55:36;3.10;99.90
19330;DHT22;9799;48.214;16.388;2022-11-20T04:59:01;3.00;99.90
19330;DHT22;9799;48.214;16.388;2022-11-20T05:02:23;3.00;99.90
19330;DHT22;9799;48.214;16.388;2022-11-20T05:05:44;2.90;99.90
19330;DHT22;9799;48.214;16.388;2022-11-20T05:09:05;3.00;99.90
19330;DHT22;9799;48.214;16.388;2022-11-20T05:12:26;2.90;99.90
19330;DHT22;9799;48.214;16.388;2022-11-20T05:15:50;3.10;99.90
19330;DHT22;9799;48.214;16.388;2022-11-20T05:19:11;2.90;99.90
19330;DHT22;9799;48.214;16.388;2022-11-20T05:22:32;2.90;99.90
19330;DHT22;9799;48.214;16.388;2022-11-20T05:25:53;3.00;99.90
19330;DHT22;9799;48.214;16.388;2022-11-20T05:29:14;3.10;99.90
19330;DHT22;9799;48.214;16.388;2022-11-20T05:32:37;3.20;99.90
19330;DHT22;9799;48.214;16.388;2022-11-20T05:35:58;3.10;99.90
19330;DHT22;9799;48.214;16.388;2022-11-20T05:39:19;2.90;99.90
19330;DHT22;9799;48.214;16.388;2022-11-20T05:42:41;2.80;99.90
19330;DHT22;9799;48.214;16.388;2022-11-20T05:46:04;2.80;99.90
19330;DHT22;9799;48.214;16.388;2022-11-20T05:49:27;3.00;99.90
19330;DHT22;9799;48.214;16.388;2022-11-20T05:52:48;2.90;99.90
19330;DHT22;9799;48.214;16.388;2022-11-20T05:56:10;2.90;99.90
19330;DHT22;9799;48.214;16.388;2022-11-20T05:59:32;3.10;99.90
19330;DHT22;9799;48.214;16.388;2022-11-20T06:02:53;3.00;99.90
19330;DHT22;9799;48.214;16.388;2022-11-20T06:06:17;2.80;99.90
19330;DHT22;9799;48.214;16.388;2022-11-20T06:09:38;2.80;99.90
19330;DHT22;9799;48.214;16.388;2022-11-20T06:12:59;3.00;99.90
19330;DHT22;9799;48.214;16.388;2022-11-20T06:16:21;3.00;99.90
19330;DHT22;9799;48.214;16.388;2022-11-20T06:19:42;2.70;99.90
19330;DHT22;9799;48.214;16.388;2022-11-20T06:23:05;2.70;99.90
19330;DHT22;9799;48.214;16.388;2022-11-20T06:26:27;2.60;99.90
19330;DHT22;9799;48.214;16.388;2022-11-20T06:29:48;2.70;99.90
19330;DHT22;9799;48.214;16.388;2022-11-20T06:33:09;3.00;99.90
19330;DHT22;9799;48.214;16.388;2022-11-20T06:36:30;3.00;99.90
19330;DHT22;9799;48.214;16.388;2022-11-20T06:39:53;2.70;99.90
19330;DHT22;9799;48.214;16.388;2022-11-20T06:43:14;2.50;99.90
19330;DHT22;9799;48.214;16.388;2022-11-20T06:46:38;2.40;99.90
19330;DHT22;9799;48.214;16.388;2022-11-20T06:49:59;2.80;99.90
19330;DHT22;9799;48.214;16.388;2022-11-20T06:53:21;2.90;99.90
19330;DHT22;9799;48.214;16.388;2022-11-20T06:56:46;2.90;99.90
19330;DHT22;9799;48.214;16.388;2022-11-20T07:00:09;2.60;99.90
19330;DHT22;9799;48.214;16.388;2022-11-20T07:03:31;2.80;99.90
19330;DHT22;9799;48.214;16.388;2022-11-20T07:06:52;2.80;99.90
19330;DHT22;9799;48.214;16.388;2022-11-20T07:10:13;2.70;99.90
19330;DHT22;9799;48.214;16.388;2022-11-20T07:13:36;2.70;99.90
19330;DHT22;9799;48.214;16.388;2022-11-20T07:16:57;3.00;99.90
19330;DHT22;9799;48.214;16.388;2022-11-20T07:20:18;2.80;99.90
19330;DHT22;9799;48.214;16.388;2022-11-20T07:23:39;2.70;99.90
19330;DHT22;9799;48.214;16.388;2022-11-20T07:27:00;2.60;99.90
19330;DHT22;9799;48.214;16.388;2022-11-20T07:30:23;2.60;99.90
19330;DHT22;9799;48.214;16.388;2022-11-20T07:33:44;2.60;99.90
19330;DHT22;9799;48.214;16.388;2022-11-20T07:37:05;2.70;99.90
19330;DHT22;9799;48.214;16.388;2022-11-20T07:40:26;2.50;99.90
19330;DHT22;9799;48.214;16.388;2022-11-20T07:43:48;2.70;99.90
19330;DHT22;9799;48.214;16.388;2022-11-20T07:47:10;2.70;99.90
19330;DHT22;9799;48.214;16.388;2022-11-20T07:50:31;2.90;99.90
19330;DHT22;9799;48.214;16.388;2022-11-20T07:53:53;3.10;99.90
19330;DHT22;9799;48.214;16.388;2022-11-20T07:57:14;3.20;99.90
19330;DHT22;9799;48.214;16.388;2022-11-20T08:00:35;3.30;99.90
19330;DHT22;9799;48.214;16.388;2022-11-20T08:03:58;3.00;99.90
19330;DHT22;9799;48.214;16.388;2022-11-20T08:07:19;3.00;99.90
19330;DHT22;9799;48.214;16.388;2022-11-20T08:10:40;3.00;99.90
19330;DHT22;9799;48.214;16.388;2022-11-20T08:14:01;2.80;99.90
19330;DHT22;9799;48.214;16.388;2022-11-20T08:17:33;2.80;99.90
19330;DHT22;9799;48.214;16.388;2022-11-20T08:20:56;2.90;99.90
19330;DHT22;9799;48.214;16.388;2022-11-20T08:24:17;2.90;99.90
19330;DHT22;9799;48.214;16.388;2022-11-20T08:27:38;3.20;99.90
19330;DHT22;9799;48.214;16.388;2022-11-20T08:31:02;3.30;99.90
19330;DHT22;9799;48.214;16.388;2022-11-20T08:34:23;3.50;99.90
19330;DHT22;9799;48.214;16.388;2022-11-20T08:37:47;3.30;99.90
19330;DHT22;9799;48.214;16.388;2022-11-20T08:41:09;3.40;99.90
19330;DHT22;9799;48.214;16.388;2022-11-20T08:44:45;3.20;99.90
19330;DHT22;9799;48.214;16.388;2022-11-20T08:48:06;3.20;99.90
19330;DHT22;9799;48.214;16.388;2022-11-20T08:51:28;3.20;99.90
19330;DHT22;9799;48.214;16.388;2022-11-20T08:54:50;3.10;99.90
19330;DHT22;9799;48.214;16.388;2022-11-20T08:58:11;3.20;99.90
19330;DHT22;9799;48.214;16.388;2022-11-20T09:01:32;3.30;99.90
19330;DHT22;9799;48.214;16.388;2022-11-20T09:04:54;3.30;99.90
19330;DHT22;9799;48.214;16.388;2022-11-20T09:08:15;3.30;99.90
19330;DHT22;9799;48.214;16.388;2022-11-20T09:11:37;3.20;99.90
19330;DHT22;9799;48.214;16.388;2022-11-20T09:14:58;3.30;99.90
19330;DHT22;9799;48.214;16.388;2022-11-20T09:18:20;3.30;99.90
19330;DHT22;9799;48.214;16.388;2022-11-20T09:21:41;3.30;99.90
19330;DHT22;9799;48.214;16.388;2022-11-20T09:25:03;3.30;99.90
19330;DHT22;9799;48.214;16.388;2022-11-20T09:28:26;3.00;99.90
19330;DHT22;9799;48.214;16.388;2022-11-20T09:31:47;3.30;99.90
19330;DHT22;9799;48.214;16.388;2022-11-20T09:35:08;3.40;99.90
19330;DHT22;9799;48.214;16.388;2022-11-20T09:38:30;3.30;99.90
19330;DHT22;9799;48.214;16.388;2022-11-20T09:42:08;3.30;99.90
19330;DHT22;9799;48.214;16.388;2022-11-20T09:45:46;3.40;99.90
19330;DHT22;9799;48.214;16.388;2022-11-20T09:49:22;3.60;99.90
19330;DHT22;9799;48.214;16.388;2022-11-20T09:52:51;3.40;99.90
19330;DHT22;9799;48.214;16.388;2022-11-20T09:56:17;3.30;99.90
19330;DHT22;9799;48.214;16.388;2022-11-20T09:59:41;3.50;99.90
19330;DHT22;9799;48.214;16.388;2022-11-20T10:03:11;3.40;99.90
19330;DHT22;9799;48.214;16.388;2022-11-20T10:06:39;3.50;99.90
19330;DHT22;9799;48.214;16.388;2022-11-20T10:10:02;3.60;99.90
19330;DHT22;9799;48.214;16.388;2022-11-20T10:13:34;3.60;99.90
19330;DHT22;9799;48.214;16.388;2022-11-20T10:17:03;3.70;99.90
19330;DHT22;9799;48.214;16.388;2022-11-20T10:20:38;3.50;99.90
19330;DHT22;9799;48.214;16.388;2022-11-20T10:28:15;3.70;99.90
19330;DHT22;9799;48.214;16.388;2022-11-20T10:31:40;3.70;99.90
19330;DHT22;9799;48.214;16.388;2022-11-20T10:35:05;3.80;99.90
19330;DHT22;9799;48.214;16.388;2022-11-20T10:38:34;3.70;99.90
19330;DHT22;9799;48.214;16.388;2022-11-20T10:41:58;3.70;99.90
19330;DHT22;9799;48.214;16.388;2022-11-20T10:45:31;3.70;99.90
19330;DHT22;9799;48.214;16.388;2022-11-20T10:48:53;3.80;99.90
19330;DHT22;9799;48.214;16.388;2022-11-20T10:52:21;3.90;99.90
19330;DHT22;9799;48.214;16.388;2022-11-20T10:55:53;3.90;99.90
19330;DHT22;9799;48.214;16.388;2022-11-20T10:59:46;3.80;99.90
19330;DHT22;9799;48.214;16.388;2022-11-20T11:03:23;3.90;99.90
19330;DHT22;9799;48.214;16.388;2022-11-20T11:06:47;4.20;99.90
19330;DHT22;9799;48.214;16.388;2022-11-20T11:10:22;4.20;99.90
19330;DHT22;9799;48.214;16.388;2022-11-20T11:13:46;4.10;99.90
19330;DHT22;9799;48.214;16.388;2022-11-20T11:17:23;4.20;99.90
19330;DHT22;9799;48.214;16.388;2022-11-20T11:20:50;4.20;99.90
19330;DHT22;9799;48.214;16.388;2022-11-20T11:24:20;4.10;99.90
19330;DHT22;9799;48.214;16.388;2022-11-20T11:27:46;4.20;99.90
19330;DHT22;9799;48.214;16.388;2022-11-20T11:31:08;4.20;99.90
19330;DHT22;9799;48.214;16.388;2022-11-20T11:34:30;4.30;99.90
19330;DHT22;9799;48.214;16.388;2022-11-20T11:38:02;4.20;99.90
19330;DHT22;9799;48.214;16.388;2022-11-20T11:41:28;4.40;99.90
19330;DHT22;9799;48.214;16.388;2022-11-20T11:44:51;4.40;99.90
19330;DHT22;9799;48.214;16.388;2022-11-20T11:48:30;4.40;99.90
19330;DHT22;9799;48.214;16.388;2022-11-20T11:52:08;4.40;99.90
19330;DHT22;9799;48.214;16.388;2022-11-20T11:55:36;4.50;99.90
19330;DHT22;9799;48.214;16.388;2022-11-20T11:59:04;4.80;99.90
19330;DHT22;9799;48.214;16.388;2022-11-20T12:02:37;4.90;99.90
19330;DHT22;9799;48.214;16.388;2022-11-20T12:06:03;4.90;99.90
19330;DHT22;9799;48.214;16.388;2022-11-20T12:09:35;4.90;99.90
19330;DHT22;9799;48.214;16.388;2022-11-20T12:13:02;4.90;99.90
19330;DHT22;9799;48.214;16.388;2022-11-20T12:16:25;4.80;99.90
19330;DHT22;9799;48.214;16.388;2022-11-20T12:19:46;4.90;99.90
19330;DHT22;9799;48.214;16.388;2022-11-20T12:23:16;4.90;99.90
19330;DHT22;9799;48.214;16.388;2022-11-20T12:26:49;5.00;99.90
19330;DHT22;9799;48.214;16.388;2022-11-20T12:30:16;4.90;99.90
19330;DHT22;9799;48.214;16.388;2022-11-20T12:33:52;5.00;99.90
19330;DHT22;9799;48.214;16.388;2022-11-20T12:37:26;5.10;99.90
19330;DHT22;9799;48.214;16.388;2022-11-20T12:40:56;5.10;99.90
19330;DHT22;9799;48.214;16.388;2022-11-20T12:44:51;5.10;99.90
19330;DHT22;9799;48.214;16.388;2022-11-20T12:48:38;5.20;99.90
19330;DHT22;9799;48.214;16.388;2022-11-20T12:52:20;5.30;99.90
19330;DHT22;9799;48.214;16.388;2022-11-20T12:55:49;5.60;99.90
19330;DHT22;9799;48.214;16.388;2022-11-20T12:59:27;5.70;99.90
19330;DHT22;9799;48.214;16.388;2022-11-20T13:03:34;5.80;99.90
19330;DHT22;9799;48.214;16.388;2022-11-20T13:06:58;5.80;99.90
19330;DHT22;9799;48.214;16.388;2022-11-20T13:10:26;6.00;99.90
19330;DHT22;9799;48.214;16.388;2022-11-20T13:14:13;6.00;99.90
19330;DHT22;9799;48.214;16.388;2022-11-20T13:17:43;6.20;99.90
19330;DHT22;9799;48.214;16.388;2022-11-20T13:21:16;6.20;99.90
19330;DHT22;9799;48.214;16.388;2022-11-20T13:24:38;6.10;99.90
19330;DHT22;9799;48.214;16.388;2022-11-20T13:28:01;6.20;99.90
19330;DHT22;9799;48.214;16.388;2022-11-20T13:31:30;6.30;99.90
19330;DHT22;9799;48.214;16.388;2022-11-20T13:34:54;6.30;99.90
19330;DHT22;9799;48.214;16.388;2022-11-20T13:38:16;6.30;99.90
19330;DHT22;9799;48.214;16.388;2022-11-20T13:41:38;6.30;99.90
19330;DHT22;9799;48.214;16.388;2022-11-20T13:45:02;6.30;99.90
19330;DHT22;9799;48.214;16.388;2022-11-20T13:48:27;6.40;99.90
19330;DHT22;9799;48.214;16.388;2022-11-20T13:51:56;6.40;99.90
19330;DHT22;9799;48.214;16.388;2022-11-20T13:55:28;6.40;99.90
19330;DHT22;9799;48.214;16.388;2022-11-20T13:59:00;6.30;99.90
19330;DHT22;9799;48.214;16.388;2022-11-20T14:02:26;6.40;99.90
19330;DHT22;9799;48.214;16.388;2022-11-20T14:05:52;6.40;99.90
19330;DHT22;9799;48.214;16.388;2022-11-20T14:09:27;6.30;99.90
19330;DHT22;9799;48.214;16.388;2022-11-20T14:12:49;6.30;99.90
19330;DHT22;9799;48.214;16.388;2022-11-20T14:16:12;6.30;99.90
19330;DHT22;9799;48.214;16.388;2022-11-20T14:19:35;6.30;99.90
19330;DHT22;9799;48.214;16.388;2022-11-20T14:23:00;6.30;99.90
19330;DHT22;9799;48.214;16.388;2022-11-20T14:26:24;6.30;99.90
19330;DHT22;9799;48.214;16.388;2022-11-20T14:29:48;6.30;99.90
19330;DHT22;9799;48.214;16.388;2022-11-20T14:33:12;6.40;99.90
19330;DHT22;9799;48.214;16.388;2022-11-20T14:36:35;6.40;99.90
19330;DHT22;9799;48.214;16.388;2022-11-20T14:39:59;6.40;99.90
19330;DHT22;9799;48.214;16.388;2022-11-20T14:43:25;6.40;99.90
19330;DHT22;9799;48.214;16.388;2022-11-20T14:46:47;6.50;99.90
19330;DHT22;9799;48.214;16.388;2022-11-20T14:50:13;6.50;99.90
19330;DHT22;9799;48.214;16.388;2022-11-20T14:53:37;6.40;99.90
19330;DHT22;9799;48.214;16.388;2022-11-20T14:57:02;6.40;99.90
19330;DHT22;9799;48.214;16.388;2022-11-20T15:00:29;6.40;99.90
19330;DHT22;9799;48.214;16.388;2022-11-20T15:03:59;6.40;99.90
19330;DHT22;9799;48.214;16.388;2022-11-20T15:07:26;6.40;99.90
19330;DHT22;9799;48.214;16.388;2022-11-20T15:10:50;6.50;99.90
19330;DHT22;9799;48.214;16.388;2022-11-20T15:14:14;6.50;99.90
19330;DHT22;9799;48.214;16.388;2022-11-20T15:17:40;6.60;99.90
19330;DHT22;9799;48.214;16.388;2022-11-20T15:21:06;6.60;99.90
19330;DHT22;9799;48.214;16.388;2022-11-20T15:24:31;6.50;99.90
19330;DHT22;9799;48.214;16.388;2022-11-20T15:27:55;6.40;99.90
19330;DHT22;9799;48.214;16.388;2022-11-20T15:31:19;6.40;99.90
19330;DHT22;9799;48.214;16.388;2022-11-20T15:34:43;6.40;99.90
19330;DHT22;9799;48.214;16.388;2022-11-20T15:38:08;6.30;99.90
19330;DHT22;9799;48.214;16.388;2022-11-20T15:41:31;6.30;99.90
19330;DHT22;9799;48.214;16.388;2022-11-20T15:44:54;6.40;99.90
19330;DHT22;9799;48.214;16.388;2022-11-20T15:48:20;6.40;99.90
19330;DHT22;9799;48.214;16.388;2022-11-20T15:51:46;6.40;99.90
19330;DHT22;9799;48.214;16.388;2022-11-20T15:55:10;6.20;99.90
19330;DHT22;9799;48.214;16.388;2022-11-20T15:58:32;6.10;99.90
19330;DHT22;9799;48.214;16.388;2022-11-20T16:01:54;6.10;99.90
19330;DHT22;9799;48.214;16.388;2022-11-20T16:05:16;6.10;99.90
19330;DHT22;9799;48.214;16.388;2022-11-20T16:08:41;6.20;99.90
19330;DHT22;9799;48.214;16.388;2022-11-20T16:12:05;6.30;99.90
19330;DHT22;9799;48.214;16.388;2022-11-20T16:15:52;6.30;99.90
19330;DHT22;9799;48.214;16.388;2022-11-20T16:19:16;6.30;99.90
19330;DHT22;9799;48.214;16.388;2022-11-20T16:22:39;6.30;99.90
19330;DHT22;9799;48.214;16.388;2022-11-20T16:26:11;6.20;99.90
19330;DHT22;9799;48.214;16.388;2022-11-20T16:29:33;6.10;99.90
19330;DHT22;9799;48.214;16.388;2022-11-20T16:32:55;5.90;99.90
19330;DHT22;9799;48.214;16.388;2022-11-20T16:36:18;5.80;99.90
19330;DHT22;9799;48.214;16.388;2022-11-20T16:39:41;5.80;99.90
19330;DHT22;9799;48.214;16.388;2022-11-20T16:43:09;5.80;99.90
19330;DHT22;9799;48.214;16.388;2022-11-20T16:46:32;5.80;99.90
19330;DHT22;9799;48.214;16.388;2022-11-20T16:49:56;5.90;99.90
19330;DHT22;9799;48.214;16.388;2022-11-20T16:53:20;5.90;99.90
19330;DHT22;9799;48.214;16.388;2022-11-20T16:56:44;5.90;99.90
19330;DHT22;9799;48.214;16.388;2022-11-20T17:00:11;5.90;99.90
19330;DHT22;9799;48.214;16.388;2022-11-20T17:03:34;5.90;99.90
19330;DHT22;9799;48.214;16.388;2022-11-20T17:06:55;5.80;99.90
19330;DHT22;9799;48.214;16.388;2022-11-20T17:10:17;5.80;99.90
19330;DHT22;9799;48.214;16.388;2022-11-20T17:13:42;5.70;99.90
19330;DHT22;9799;48.214;16.388;2022-11-20T17:17:06;5.70;99.90
19330;DHT22;9799;48.214;16.388;2022-11-20T17:20:32;5.90;99.90
19330;DHT22;9799;48.214;16.388;2022-11-20T17:23:54;6.00;99.90
19330;DHT22;9799;48.214;16.388;2022-11-20T17:27:16;6.00;99.90
19330;DHT22;9799;48.214;16.388;2022-11-20T17:30:39;6.00;99.90
19330;DHT22;9799;48.214;16.388;2022-11-20T17:34:03;6.00;99.90
19330;DHT22;9799;48.214;16.388;2022-11-20T17:37:26;5.80;99.90
19330;DHT22;9799;48.214;16.388;2022-11-20T17:40:50;5.70;99.90
19330;DHT22;9799;48.214;16.388;2022-11-20T17:44:12;5.60;99.90
19330;DHT22;9799;48.214;16.388;2022-11-20T17:47:34;5.60;99.90
19330;DHT22;9799;48.214;16.388;2022-11-20T17:51:00;5.70;99.90
19330;DHT22;9799;48.214;16.388;2022-11-20T17:54:22;5.90;99.90
19330;DHT22;9799;48.214;16.388;2022-11-20T17:57:45;5.80;99.90
19330;DHT22;9799;48.214;16.388;2022-11-20T18:01:16;5.90;99.90
19330;DHT22;9799;48.214;16.388;2022-11-20T18:04:39;6.10;99.90
19330;DHT22;9799;48.214;16.388;2022-11-20T18:08:02;6.00;99.90
19330;DHT22;9799;48.214;16.388;2022-11-20T18:11:27;6.00;99.90
19330;DHT22;9799;48.214;16.388;2022-11-20T18:14:49;6.10;99.90
19330;DHT22;9799;48.214;16.388;2022-11-20T18:18:14;6.00;99.90
19330;DHT22;9799;48.214;16.388;2022-11-20T18:21:35;6.00;99.90
19330;DHT22;9799;48.214;16.388;2022-11-20T18:25:03;6.00;99.90
19330;DHT22;9799;48.214;16.388;2022-11-20T18:28:26;6.00;99.90
19330;DHT22;9799;48.214;16.388;2022-11-20T18:31:49;6.10;99.90
19330;DHT22;9799;48.214;16.388;2022-11-20T18:35:10;6.20;99.90
19330;DHT22;9799;48.214;16.388;2022-11-20T18:38:34;6.10;99.90
19330;DHT22;9799;48.214;16.388;2022-11-20T18:42:01;6.20;99.90
19330;DHT22;9799;48.214;16.388;2022-11-20T18:45:40;6.30;99.90
19330;DHT22;9799;48.214;16.388;2022-11-20T18:49:04;6.30;99.90
19330;DHT22;9799;48.214;16.388;2022-11-20T18:52:28;6.20;99.90
19330;DHT22;9799;48.214;16.388;2022-11-20T18:55:53;6.10;99.90
19330;DHT22;9799;48.214;16.388;2022-11-20T18:59:18;6.20;99.90
19330;DHT22;9799;48.214;16.388;2022-11-20T19:02:41;6.20;99.90
19330;DHT22;9799;48.214;16.388;2022-11-20T19:06:04;6.20;99.90
19330;DHT22;9799;48.214;16.388;2022-11-20T19:09:26;6.20;99.90
19330;DHT22;9799;48.214;16.388;2022-11-20T19:12:49;6.30;99.90
19330;DHT22;9799;48.214;16.388;2022-11-20T19:16:16;6.30;99.90
19330;DHT22;9799;48.214;16.388;2022-11-20T19:19:42;6.30;99.90
19330;DHT22;9799;48.214;16.388;2022-11-20T19:23:06;6.50;99.90
19330;DHT22;9799;48.214;16.388;2022-11-20T19:26:29;6.40;99.90
19330;DHT22;9799;48.214;16.388;2022-11-20T19:29:52;6.30;99.90
19330;DHT22;9799;48.214;16.388;2022-11-20T19:33:20;6.30;99.90
19330;DHT22;9799;48.214;16.388;2022-11-20T19:36:43;6.30;99.90
19330;DHT22;9799;48.214;16.388;2022-11-20T19:40:07;6.30;99.90
19330;DHT22;9799;48.214;16.388;2022-11-20T19:43:29;6.20;99.90
19330;DHT22;9799;48.214;16.388;2022-11-20T19:46:53;6.20;99.90
19330;DHT22;9799;48.214;16.388;2022-11-20T19:50:19;6.20;99.90
19330;DHT22;9799;48.214;16.388;2022-11-20T19:53:41;6.10;99.90
19330;DHT22;9799;48.214;16.388;2022-11-20T19:57:04;6.20;99.90
19330;DHT22;9799;48.214;16.388;2022-11-20T20:00:27;6.20;99.90
19330;DHT22;9799;48.214;16.388;2022-11-20T20:03:51;6.10;99.90
19330;DHT22;9799;48.214;16.388;2022-11-20T20:07:15;6.20;99.90
19330;DHT22;9799;48.214;16.388;2022-11-20T20:10:51;6.20;99.90
19330;DHT22;9799;48.214;16.388;2022-11-20T20:14:15;6.20;99.90
19330;DHT22;9799;48.214;16.388;2022-11-20T20:17:38;6.20;99.90
19330;DHT22;9799;48.214;16.388;2022-11-20T20:21:15;6.10;99.90
19330;DHT22;9799;48.214;16.388;2022-11-20T20:24:40;6.20;99.90
19330;DHT22;9799;48.214;16.388;2022-11-20T20:28:04;6.10;99.90
19330;DHT22;9799;48.214;16.388;2022-11-20T20:31:28;6.10;99.90
19330;DHT22;9799;48.214;16.388;2022-11-20T20:34:50;6.10;99.90
19330;DHT22;9799;48.214;16.388;2022-11-20T20:38:13;6.10;99.90
19330;DHT22;9799;48.214;16.388;2022-11-20T20:41:55;6.00;99.90
19330;DHT22;9799;48.214;16.388;2022-11-20T20:45:17;6.00;99.90
19330;DHT22;9799;48.214;16.388;2022-11-20T20:48:42;6.00;99.90
19330;DHT22;9799;48.214;16.388;2022-11-20T20:52:04;5.80;99.90
19330;DHT22;9799;48.214;16.388;2022-11-20T20:55:29;5.80;99.90
19330;DHT22;9799;48.214;16.388;2022-11-20T20:58:57;5.90;99.90
19330;DHT22;9799;48.214;16.388;2022-11-20T21:02:19;5.90;99.90
19330;DHT22;9799;48.214;16.388;2022-11-20T21:05:41;6.00;99.90
19330;DHT22;9799;48.214;16.388;2022-11-20T21:09:04;6.00;99.90
19330;DHT22;9799;48.214;16.388;2022-11-20T21:12:27;6.10;99.90
19330;DHT22;9799;48.214;16.388;2022-11-20T21:15:51;6.00;99.90
19330;DHT22;9799;48.214;16.388;2022-11-20T21:19:12;5.80;99.90
19330;DHT22;9799;48.214;16.388;2022-11-20T21:22:35;5.50;99.90
19330;DHT22;9799;48.214;16.388;2022-11-20T21:26:07;5.40;99.90
19330;DHT22;9799;48.214;16.388;2022-11-20T21:29:29;5.40;99.90
19330;DHT22;9799;48.214;16.388;2022-11-20T21:32:52;5.40;99.90
19330;DHT22;9799;48.214;16.388;2022-11-20T21:36:15;5.60;99.90
19330;DHT22;9799;48.214;16.388;2022-11-20T21:39:38;5.70;99.90
19330;DHT22;9799;48.214;16.388;2022-11-20T21:43:09;5.70;99.90
19330;DHT22;9799;48.214;16.388;2022-11-20T21:46:32;5.60;99.90
19330;DHT22;9799;48.214;16.388;2022-11-20T21:49:55;5.40;99.90
19330;DHT22;9799;48.214;16.388;2022-11-20T21:53:17;5.20;99.90
19330;DHT22;9799;48.214;16.388;2022-11-20T21:56:40;5.20;99.90